createdAt,value
2018-06-28T00:02:27.743Z,17.00
2018-06-28T00:04:57.353Z,17.00
2018-06-28T00:07:26.984Z,17.00
2018-06-28T00:09:56.585Z,17.00
2018-06-28T00:12:26.203Z,16.90
2018-06-28T00:14:55.809Z,16.90
2018-06-28T00:17:25.464Z,16.90
2018-06-28T00:19:55.244Z,16.90
2018-06-28T00:22:24.866Z,16.90
2018-06-28T00:24:54.499Z,16.90
2018-06-28T00:27:24.102Z,16.90
2018-06-28T00:29:53.732Z,16.90
2018-06-28T00:34:53.129Z,16.90
2018-06-28T00:37:22.836Z,16.90
2018-06-28T00:39:52.452Z,16.90
2018-06-28T00:42:22.052Z,16.90
2018-06-28T00:44:51.721Z,17.00
2018-06-28T00:47:21.364Z,17.00
2018-06-28T00:49:51.401Z,17.00
2018-06-28T00:52:21.643Z,17.00
2018-06-28T00:54:51.242Z,17.00
2018-06-28T00:57:21.286Z,17.00
2018-06-28T00:59:50.870Z,16.90
2018-06-28T01:02:21.010Z,17.00
2018-06-28T01:04:51.330Z,16.90
2018-06-28T01:07:21.816Z,16.90
2018-06-28T01:09:51.424Z,16.90
2018-06-28T01:12:21.521Z,16.80
2018-06-28T01:14:51.180Z,16.80
2018-06-28T01:17:21.634Z,16.70
2018-06-28T01:19:52.193Z,16.60
2018-06-28T01:22:21.820Z,16.60
2018-06-28T01:24:51.488Z,16.50
2018-06-28T01:27:21.669Z,16.50
2018-06-28T01:29:51.292Z,16.40
2018-06-28T01:32:21.872Z,16.40
2018-06-28T01:34:52.502Z,16.40
2018-06-28T01:37:22.938Z,16.30
2018-06-28T01:39:52.638Z,16.30
2018-06-28T01:43:34.175Z,16.30
2018-06-28T01:46:03.850Z,16.20
2018-06-28T01:48:33.425Z,16.20
2018-06-28T01:51:03.072Z,16.20
2018-06-28T01:53:32.729Z,16.20
2018-06-28T01:56:02.444Z,16.20
2018-06-28T01:58:32.038Z,16.10
2018-06-28T02:01:01.721Z,16.10
2018-06-28T02:03:31.497Z,16.10
2018-06-28T02:08:30.464Z,16.00
2018-06-28T02:11:00.198Z,15.90
2018-06-28T02:13:29.777Z,16.00
2018-06-28T02:15:59.357Z,15.90
2018-06-28T02:18:28.980Z,15.90
2018-06-28T02:20:58.545Z,15.90
2018-06-28T02:23:28.157Z,15.90
2018-06-28T02:25:57.801Z,15.90
2018-06-28T02:28:27.452Z,15.90
2018-06-28T02:30:57.121Z,15.80
2018-06-28T02:33:26.764Z,15.80
2018-06-28T02:35:56.451Z,15.80
2018-06-28T02:38:26.053Z,15.80
2018-06-28T02:40:55.901Z,15.70
2018-06-28T02:43:25.504Z,15.80
2018-06-28T02:45:55.101Z,15.70
2018-06-28T02:48:24.709Z,15.70
2018-06-28T02:50:54.355Z,15.70
2018-06-28T02:53:24.021Z,15.60
2018-06-28T02:55:54.329Z,15.70
2018-06-28T02:58:23.939Z,15.70
2018-06-28T03:00:53.582Z,15.60
2018-06-28T03:03:23.462Z,15.60
2018-06-28T03:05:53.106Z,15.60
2018-06-28T03:08:22.993Z,15.60
2018-06-28T03:10:53.328Z,15.70
2018-06-28T03:13:23.102Z,15.70
2018-06-28T03:15:52.750Z,15.70
2018-06-28T03:18:22.990Z,15.60
2018-06-28T03:20:52.650Z,15.60
2018-06-28T03:23:22.983Z,15.60
2018-06-28T03:25:53.114Z,15.70
2018-06-28T03:28:24.791Z,15.70
2018-06-28T03:30:55.333Z,15.70
2018-06-28T03:33:24.984Z,15.70
2018-06-28T03:35:54.602Z,15.70
2018-06-28T03:38:24.250Z,15.70
2018-06-28T03:40:54.185Z,15.70
2018-06-28T03:43:24.575Z,15.80
2018-06-28T03:45:54.256Z,15.80
2018-06-28T03:48:24.792Z,15.90
2018-06-28T03:50:54.376Z,16.00
2018-06-28T03:53:24.446Z,16.10
2018-06-28T03:55:57.031Z,16.20
2018-06-28T03:58:26.719Z,16.30
2018-06-28T04:00:56.287Z,16.50
2018-06-28T04:03:26.040Z,16.50
2018-06-28T04:05:55.656Z,16.70
2018-06-28T04:08:25.807Z,16.80
2018-06-28T04:10:55.781Z,16.90
2018-06-28T04:13:26.188Z,16.90
2018-06-28T04:15:55.835Z,17.00
2018-06-28T04:18:26.096Z,17.10
2018-06-28T04:20:55.713Z,17.20
2018-06-28T04:23:25.956Z,17.20
2018-06-28T04:25:58.014Z,17.20
2018-06-28T04:28:27.704Z,17.40
2018-06-28T04:30:57.355Z,17.50
2018-06-28T04:33:27.354Z,17.50
2018-06-28T04:35:56.970Z,17.60
2018-06-28T04:38:27.408Z,17.80
2018-06-28T04:40:57.045Z,17.90
2018-06-28T04:43:27.825Z,18.10
2018-06-28T04:45:57.468Z,18.30
2018-06-28T04:48:27.978Z,18.50
2018-06-28T04:53:27.549Z,18.70
2018-06-28T04:55:57.240Z,18.60
2018-06-28T04:58:27.800Z,18.80
2018-06-28T05:00:57.445Z,19.00
2018-06-28T05:03:27.880Z,19.20
2018-06-28T05:05:57.508Z,19.20
2018-06-28T05:08:28.031Z,19.10
2018-06-28T05:10:57.626Z,19.40
2018-06-28T05:13:27.872Z,19.30
2018-06-28T05:15:57.520Z,19.50
2018-06-28T05:18:27.754Z,19.70
2018-06-28T05:20:57.331Z,19.90
2018-06-28T05:23:27.883Z,20.00
2018-06-28T05:25:57.633Z,20.20
2018-06-28T05:28:27.917Z,20.10
2018-06-28T05:30:57.799Z,19.90
2018-06-28T05:33:28.147Z,19.70
2018-06-28T05:35:58.025Z,19.60
2018-06-28T05:38:28.258Z,19.70
2018-06-28T05:40:57.858Z,19.80
2018-06-28T05:43:28.129Z,19.80
2018-06-28T05:45:57.733Z,19.80
2018-06-28T05:48:27.942Z,19.70
2018-06-28T05:50:57.539Z,19.70
2018-06-28T05:53:27.844Z,19.50
2018-06-28T05:55:57.533Z,19.40
2018-06-28T05:58:27.492Z,19.30
2018-06-28T06:03:26.531Z,19.60
2018-06-28T06:05:56.263Z,19.70
2018-06-28T06:08:25.810Z,19.80
2018-06-28T06:10:55.749Z,19.80
2018-06-28T06:13:25.387Z,19.80
2018-06-28T06:15:54.971Z,19.80
2018-06-28T06:18:24.575Z,20.00
2018-06-28T06:20:54.232Z,20.10
2018-06-28T06:23:23.880Z,20.40
2018-06-28T06:28:23.561Z,20.60
2018-06-28T06:30:53.267Z,20.90
2018-06-28T06:33:22.848Z,21.40
2018-06-28T06:35:52.478Z,21.70
2018-06-28T06:38:22.095Z,21.80
2018-06-28T06:40:52.632Z,22.00
2018-06-28T06:43:22.255Z,22.20
2018-06-28T06:45:51.966Z,22.70
2018-06-28T06:48:21.574Z,23.10
2018-06-28T06:53:20.750Z,23.90
2018-06-28T06:55:51.465Z,24.10
2018-06-28T06:58:21.127Z,24.40
2018-06-28T07:00:50.813Z,24.60
2018-06-28T07:03:20.389Z,24.50
2018-06-28T07:05:49.965Z,24.60
2018-06-28T07:08:19.571Z,24.70
2018-06-28T07:10:50.095Z,24.80
2018-06-28T07:13:19.715Z,24.70
2018-06-28T07:15:49.339Z,24.60
2018-06-28T07:18:19.028Z,24.50
2018-06-28T07:20:48.619Z,24.60
2018-06-28T07:23:18.249Z,24.50
2018-06-28T07:25:48.717Z,24.50
2018-06-28T07:28:18.318Z,24.70
2018-06-28T07:30:47.994Z,25.00
2018-06-28T07:33:17.581Z,25.10
2018-06-28T07:35:47.168Z,25.30
2018-06-28T07:38:16.823Z,25.60
2018-06-28T07:40:46.395Z,25.70
2018-06-28T07:43:16.010Z,25.70
2018-06-28T07:45:45.606Z,25.60
2018-06-28T07:48:15.245Z,25.50
2018-06-28T07:50:44.847Z,25.60
2018-06-28T07:53:14.446Z,25.60
2018-06-28T07:55:44.058Z,25.60
2018-06-28T07:58:13.725Z,25.50
2018-06-28T08:00:43.703Z,25.60
2018-06-28T08:03:13.296Z,25.40
2018-06-28T08:05:42.939Z,25.60
2018-06-28T08:08:12.560Z,25.40
2018-06-28T08:10:42.191Z,25.40
2018-06-28T08:13:11.827Z,25.50
2018-06-28T08:15:43.301Z,25.60
2018-06-28T08:18:12.959Z,25.60
2018-06-28T08:20:42.722Z,25.90
2018-06-28T08:23:12.244Z,25.90
2018-06-28T08:25:41.838Z,25.90
2018-06-28T08:28:11.486Z,25.80
2018-06-28T08:30:42.222Z,26.10
2018-06-28T08:33:11.866Z,26.40
2018-06-28T08:35:41.410Z,26.50
2018-06-28T08:38:11.038Z,26.30
2018-06-28T08:43:11.692Z,26.20
2018-06-28T08:45:43.131Z,26.60
2018-06-28T08:48:12.714Z,26.50
2018-06-28T08:50:42.307Z,26.30
2018-06-28T08:53:11.937Z,26.60
2018-06-28T08:55:43.790Z,26.70
2018-06-28T08:58:13.545Z,26.90
2018-06-28T09:00:44.149Z,26.80
2018-06-28T09:03:13.781Z,26.90
2018-06-28T09:05:43.447Z,27.20
2018-06-28T09:08:13.135Z,27.50
2018-06-28T09:10:42.804Z,27.50
2018-06-28T09:13:12.487Z,27.40
2018-06-28T09:15:43.328Z,27.30
2018-06-28T09:18:13.077Z,27.40
2018-06-28T09:20:44.694Z,27.60
2018-06-28T09:23:14.841Z,27.80
2018-06-28T09:25:44.423Z,27.90
2018-06-28T09:28:14.066Z,28.00
2018-06-28T09:30:45.110Z,28.10
2018-06-28T09:33:14.742Z,27.90
2018-06-28T09:35:44.333Z,27.90
2018-06-28T09:38:13.933Z,27.50
2018-06-28T09:40:43.590Z,27.60
2018-06-28T09:43:13.266Z,27.40
2018-06-28T09:45:44.894Z,27.60
2018-06-28T09:48:14.473Z,27.60
2018-06-28T09:50:44.154Z,27.80
2018-06-28T09:53:13.752Z,27.40
2018-06-28T09:55:43.785Z,27.50
2018-06-28T09:58:13.397Z,27.70
2018-06-28T10:00:45.113Z,27.80
2018-06-28T10:03:15.805Z,28.00
2018-06-28T10:05:45.489Z,28.20
2018-06-28T10:08:15.164Z,28.30
2018-06-28T10:10:45.051Z,28.00
2018-06-28T10:13:14.755Z,27.70
2018-06-28T10:15:45.254Z,27.80
2018-06-28T10:18:15.809Z,28.00
2018-06-28T10:20:45.562Z,28.10
2018-06-28T10:23:15.191Z,28.00
2018-06-28T10:25:45.381Z,28.30
2018-06-28T10:28:15.001Z,28.20
2018-06-28T10:30:45.231Z,28.20
2018-06-28T10:33:14.847Z,28.10
2018-06-28T10:38:14.692Z,28.10
2018-06-28T10:40:45.158Z,28.10
2018-06-28T10:43:14.780Z,28.30
2018-06-28T10:45:45.869Z,28.20
2018-06-28T10:48:15.757Z,28.20
2018-06-28T10:50:46.240Z,28.20
2018-06-28T10:53:15.913Z,28.20
2018-06-28T10:55:46.309Z,28.10
2018-06-28T10:58:16.016Z,28.20
2018-06-28T11:00:46.270Z,28.20
2018-06-28T11:03:15.841Z,28.10
2018-06-28T11:05:46.056Z,28.10
2018-06-28T11:08:15.834Z,28.10
2018-06-28T11:10:46.317Z,28.10
2018-06-28T11:13:15.939Z,28.20
2018-06-28T11:15:46.051Z,28.40
2018-06-28T11:18:15.653Z,28.70
2018-06-28T11:20:46.104Z,28.90
2018-06-28T11:23:16.149Z,29.00
2018-06-28T11:25:46.386Z,29.10
2018-06-28T11:28:16.018Z,29.00
2018-06-28T11:30:46.832Z,29.20
2018-06-28T11:33:16.460Z,29.30
2018-06-28T11:35:46.803Z,29.10
2018-06-28T11:38:16.454Z,28.80
2018-06-28T11:40:46.611Z,28.70
2018-06-28T11:43:16.274Z,28.50
2018-06-28T11:45:46.233Z,28.30
2018-06-28T11:48:15.845Z,28.20
2018-06-28T11:50:46.307Z,28.20
2018-06-28T11:53:16.024Z,28.40
2018-06-28T11:55:45.963Z,28.40
2018-06-28T11:58:15.578Z,28.30
2018-06-28T12:00:45.242Z,28.10
2018-06-28T12:03:14.875Z,27.90
2018-06-28T12:05:44.449Z,27.60
2018-06-28T12:08:14.126Z,27.60
2018-06-28T12:10:43.745Z,27.50
2018-06-28T12:15:43.403Z,27.80
2018-06-28T12:18:13.013Z,28.00
2018-06-28T12:20:42.628Z,28.10
2018-06-28T12:23:12.200Z,28.10
2018-06-28T12:25:41.874Z,27.90
2018-06-28T12:28:11.501Z,27.80
2018-06-28T12:30:42.549Z,27.80
2018-06-28T12:33:12.134Z,27.90
2018-06-28T12:35:41.735Z,28.00
2018-06-28T12:38:11.384Z,28.20
2018-06-28T12:40:41.045Z,28.20
2018-06-28T12:43:10.698Z,28.10
2018-06-28T12:45:41.847Z,27.80
2018-06-28T12:48:13.079Z,27.70
2018-06-28T12:50:42.666Z,27.60
2018-06-28T12:53:13.121Z,27.50
2018-06-28T12:56:52.151Z,27.40
2018-06-28T12:59:22.846Z,27.40
2018-06-28T13:01:54.929Z,27.60
2018-06-28T13:04:24.615Z,28.00
2018-06-28T13:06:54.484Z,28.20
2018-06-28T13:09:24.095Z,28.50
2018-06-28T13:11:54.092Z,29.00
2018-06-28T13:14:23.723Z,29.30
2018-06-28T13:16:54.986Z,29.30
2018-06-28T13:19:24.582Z,29.10
2018-06-28T13:21:54.273Z,28.90
2018-06-28T13:24:23.966Z,28.60
2018-06-28T13:26:54.129Z,28.30
2018-06-28T13:29:23.693Z,27.90
2018-06-28T13:31:54.906Z,27.80
2018-06-28T13:36:54.621Z,27.90
2018-06-28T13:39:24.206Z,27.80
2018-06-28T13:41:54.808Z,28.00
2018-06-28T13:44:24.344Z,27.90
2018-06-28T13:46:55.149Z,27.80
2018-06-28T13:49:24.712Z,27.90
2018-06-28T13:51:55.260Z,27.90
2018-06-28T13:54:24.950Z,28.00
2018-06-28T13:56:55.279Z,28.10
2018-06-28T14:01:55.494Z,28.00
2018-06-28T14:04:25.231Z,27.90
2018-06-28T14:06:56.221Z,28.00
2018-06-28T14:09:25.944Z,27.80
2018-06-28T14:11:56.585Z,27.80
2018-06-28T14:14:26.261Z,27.70
2018-06-28T14:16:57.770Z,27.70
2018-06-28T14:19:29.105Z,27.70
2018-06-28T14:21:58.708Z,27.70
2018-06-28T14:26:59.198Z,27.70
2018-06-28T14:29:40.373Z,27.70
2018-06-28T14:32:10.405Z,27.60
2018-06-28T14:34:42.396Z,27.50
2018-06-28T14:37:14.433Z,27.40
2018-06-28T14:39:45.453Z,27.30
2018-06-28T14:42:16.583Z,27.20
2018-06-28T14:44:46.286Z,27.10
2018-06-28T14:47:15.893Z,27.00
2018-06-28T14:49:45.450Z,26.90
2018-06-28T14:52:18.163Z,26.90
2018-06-28T14:54:49.357Z,26.80
2018-06-28T14:57:19.336Z,26.70
2018-06-28T14:59:49.429Z,26.70
2018-06-28T15:02:19.684Z,26.70
2018-06-28T15:04:49.648Z,26.60
2018-06-28T15:07:19.289Z,26.60
2018-06-28T15:09:48.864Z,26.60
2018-06-28T15:12:18.500Z,26.60
2018-06-28T15:14:48.125Z,26.70
2018-06-28T15:17:17.757Z,26.80
2018-06-28T15:19:47.482Z,26.90
2018-06-28T15:22:17.116Z,27.00
2018-06-28T15:24:46.824Z,27.10
2018-06-28T15:27:16.494Z,27.20
2018-06-28T15:29:46.155Z,27.30
2018-06-28T15:32:15.926Z,27.50
2018-06-28T15:34:45.707Z,27.60
2018-06-28T15:37:15.326Z,27.80
2018-06-28T15:39:44.943Z,27.80
2018-06-28T15:42:14.579Z,27.80
2018-06-28T15:44:44.409Z,27.90
2018-06-28T15:47:14.193Z,28.00
2018-06-28T15:49:43.836Z,28.10
2018-06-28T15:52:13.457Z,28.10
2018-06-28T15:54:43.733Z,28.20
2018-06-28T15:57:13.421Z,28.30
2018-06-28T15:59:43.064Z,28.50
2018-06-28T16:02:12.763Z,28.60
2018-06-28T16:04:43.239Z,28.70
2018-06-28T16:07:12.902Z,28.80
2018-06-28T16:12:12.496Z,28.90
2018-06-28T16:14:42.185Z,28.80
2018-06-28T16:17:11.874Z,28.70
2018-06-28T16:19:41.495Z,28.60
2018-06-28T16:22:11.141Z,28.50
2018-06-28T16:24:42.050Z,28.20
2018-06-28T16:27:11.678Z,28.10
2018-06-28T16:29:41.416Z,28.20
2018-06-28T16:32:11.121Z,28.10
2018-06-28T16:34:40.820Z,28.20
2018-06-28T16:37:10.560Z,28.20
2018-06-28T16:39:41.465Z,28.10
2018-06-28T16:42:11.161Z,27.80
2018-06-28T16:44:40.764Z,27.70
2018-06-28T16:47:10.464Z,27.70
2018-06-28T16:49:40.239Z,27.60
2018-06-28T16:52:10.153Z,27.60
2018-06-28T16:54:40.860Z,27.50
2018-06-28T16:57:15.456Z,27.50
2018-06-28T16:59:45.105Z,27.70
2018-06-28T17:02:15.169Z,27.80
2018-06-28T17:04:45.596Z,27.80
2018-06-28T17:07:15.481Z,28.00
2018-06-28T17:09:45.418Z,28.10
2018-06-28T17:12:15.275Z,28.10
2018-06-28T17:14:45.121Z,28.00
2018-06-28T17:17:15.009Z,27.90
2018-06-28T17:19:44.851Z,27.90
2018-06-28T17:22:14.737Z,27.80
2018-06-28T17:24:44.825Z,27.80
2018-06-28T17:27:14.654Z,27.60
2018-06-28T17:29:45.569Z,27.30
2018-06-28T17:32:17.206Z,27.20
2018-06-28T17:34:46.943Z,27.10
2018-06-28T17:37:16.754Z,27.00
2018-06-28T17:39:46.552Z,27.00
2018-06-28T17:42:16.224Z,27.00
2018-06-28T17:44:46.020Z,27.00
2018-06-28T17:47:16.116Z,27.00
2018-06-28T17:54:45.084Z,26.70
2018-06-28T17:57:14.819Z,26.60
2018-06-28T17:59:47.845Z,26.50
2018-06-28T18:02:17.573Z,26.50
2018-06-28T18:04:47.361Z,26.60
2018-06-28T18:07:17.244Z,26.60
2018-06-28T18:09:47.153Z,26.80
2018-06-28T18:12:17.191Z,26.70
2018-06-28T18:14:47.072Z,26.70
2018-06-28T18:17:16.873Z,26.60
2018-06-28T18:19:46.611Z,26.50
2018-06-28T18:22:16.329Z,26.50
2018-06-28T18:24:46.037Z,26.30
2018-06-28T18:27:15.683Z,26.20
2018-06-28T18:29:45.365Z,26.10
2018-06-28T18:32:15.119Z,26.00
2018-06-28T18:34:44.758Z,25.80
2018-06-28T18:37:14.525Z,25.70
2018-06-28T18:39:44.383Z,25.60
2018-06-28T18:42:14.049Z,25.40
2018-06-28T18:44:43.956Z,25.20
2018-06-28T18:47:13.761Z,25.10
2018-06-28T18:49:43.495Z,25.00
2018-06-28T18:52:13.169Z,24.90
2018-06-28T18:54:43.756Z,24.80
2018-06-28T18:57:13.408Z,24.80
2018-06-28T18:59:43.144Z,24.80
2018-06-28T19:02:13.021Z,24.60
2018-06-28T19:04:42.725Z,24.60
2018-06-28T19:07:14.779Z,24.50
2018-06-28T19:09:49.705Z,24.40
2018-06-28T19:12:20.416Z,24.40
2018-06-28T19:14:55.277Z,24.40
2018-06-28T19:19:55.385Z,24.30
2018-06-28T19:22:30.310Z,24.20
2018-06-28T19:24:59.939Z,24.10
2018-06-28T19:27:29.850Z,24.10
2018-06-28T19:30:04.693Z,23.90
2018-06-28T19:32:35.027Z,23.90
2018-06-28T19:35:04.830Z,23.70
2018-06-28T19:37:39.816Z,23.70
2018-06-28T19:40:15.274Z,23.60
2018-06-28T19:42:50.068Z,23.40
2018-06-28T19:45:19.710Z,23.30
2018-06-28T19:47:49.526Z,23.20
2018-06-28T19:50:24.276Z,23.10
2018-06-28T19:55:26.739Z,22.90
2018-06-28T19:57:56.509Z,22.80
2018-06-28T20:00:31.335Z,22.70
2018-06-28T20:03:06.450Z,22.70
2018-06-28T20:05:36.674Z,22.70
2018-06-28T20:08:06.959Z,22.60
2018-06-28T20:10:36.693Z,22.60
2018-06-28T20:13:11.654Z,22.40
2018-06-28T20:15:59.162Z,22.40
2018-06-28T20:18:34.073Z,22.30
2018-06-28T20:21:03.958Z,22.20
2018-06-28T20:23:33.591Z,22.20
2018-06-28T20:26:08.580Z,22.10
2018-06-28T20:28:43.610Z,22.10
2018-06-28T20:31:19.201Z,22.00
2018-06-28T20:33:53.855Z,22.00
2018-06-28T20:36:23.730Z,21.90
2018-06-28T20:38:53.274Z,21.90
2018-06-28T20:41:23.848Z,21.80
2018-06-28T20:43:54.917Z,21.80
2018-06-28T20:46:24.606Z,21.70
2018-06-28T20:48:54.304Z,21.70
2018-06-28T20:51:24.012Z,21.60
2018-06-28T20:53:53.803Z,21.60
2018-06-28T20:56:23.511Z,21.50
2018-06-28T20:58:53.842Z,21.40
2018-06-28T21:01:23.802Z,21.50
2018-06-28T21:03:53.432Z,21.40
2018-06-28T21:08:52.461Z,21.30
2018-06-28T21:11:22.720Z,21.20
2018-06-28T21:13:52.618Z,21.20
2018-06-28T21:16:23.008Z,21.20
2018-06-28T21:18:52.665Z,21.10
2018-06-28T21:21:22.788Z,21.00
2018-06-28T21:23:52.418Z,21.00
2018-06-28T21:26:22.485Z,20.90
2018-06-28T21:28:52.422Z,20.90
2018-06-28T21:31:22.560Z,20.80
2018-06-28T21:33:52.194Z,20.80
2018-06-28T21:36:21.834Z,20.80
2018-06-28T21:38:51.626Z,20.80
2018-06-28T21:41:21.717Z,20.70
2018-06-28T21:43:52.430Z,20.80
2018-06-28T21:46:22.469Z,20.70
2018-06-28T21:48:52.157Z,20.60
2018-06-28T21:51:22.131Z,20.50
2018-06-28T21:53:51.764Z,20.50
2018-06-28T21:56:21.425Z,20.50
2018-06-28T21:58:51.399Z,20.50
2018-06-28T22:01:21.100Z,20.40
2018-06-28T22:03:50.784Z,20.40
2018-06-28T22:06:20.403Z,20.30
2018-06-28T22:08:50.030Z,20.30
2018-06-28T22:11:19.774Z,20.20
2018-06-28T22:13:49.491Z,20.20
2018-06-28T22:16:19.178Z,20.20
2018-06-28T22:18:48.842Z,20.10
2018-06-28T22:21:18.526Z,20.00
2018-06-28T22:23:48.272Z,20.00
2018-06-28T22:26:17.925Z,20.00
2018-06-28T22:28:47.538Z,20.00
2018-06-28T22:31:17.174Z,20.00
2018-06-28T22:33:46.866Z,19.90
2018-06-28T22:36:16.493Z,19.90
2018-06-28T22:38:46.191Z,19.80
2018-06-28T22:41:15.805Z,19.70
2018-06-28T22:43:45.466Z,19.70
2018-06-28T22:46:15.102Z,19.60
2018-06-28T22:48:44.948Z,19.60
2018-06-28T22:51:14.619Z,19.50
2018-06-28T22:53:44.253Z,19.50
2018-06-28T22:56:13.880Z,19.50
2018-06-28T22:58:43.559Z,19.50
2018-06-28T23:01:13.157Z,19.40
2018-06-28T23:03:43.658Z,19.40
2018-06-28T23:06:13.281Z,19.30
2018-06-28T23:11:12.308Z,19.30
2018-06-28T23:13:41.930Z,19.20
2018-06-28T23:16:11.584Z,19.20
2018-06-28T23:18:43.219Z,19.20
2018-06-28T23:21:12.802Z,19.10
2018-06-28T23:23:42.428Z,19.10
2018-06-28T23:26:12.036Z,19.10
2018-06-28T23:28:41.647Z,19.00
2018-06-28T23:31:11.266Z,19.00
2018-06-28T23:33:42.548Z,19.00
2018-06-28T23:36:12.181Z,19.00
2018-06-28T23:38:41.747Z,18.90
2018-06-28T23:41:11.326Z,18.80
2018-06-28T23:43:40.897Z,18.80
2018-06-28T23:46:10.474Z,18.80
2018-06-28T23:48:41.475Z,18.70
2018-06-28T23:51:11.053Z,18.70
2018-06-28T23:53:40.765Z,18.60
2018-06-28T23:56:10.370Z,18.60
2018-06-28T23:58:40.107Z,18.70
